Flight Track Log - Related Links

Times and Time Zones

All times are in EDT time to prevent confusion due to time zone crossing. See the N2764A flight status page for this flight to view local times or setup timezone preferences in your user account.

Time Position Orientation Groundspeed Altitude Reporting Facility
EDT Latitude Longitude Course Direction KTS MPH feet Rate Location/Type
Tue 08:07:19 AM 39.3667 -76.4500 303° West 99 114 1,900  Level Potomac TRACON
Tue 08:08:13 AM 39.3833 -76.4833 303° West 106 122 2,900 574 Climbing Potomac TRACON
Tue 08:09:14 AM 39.4000 -76.5167 303° West 150 173 3,000 149 Climbing Potomac TRACON
Tue 08:10:14 AM 39.4167 -76.5667 293° West 162 186 3,200 550 Climbing Potomac TRACON
Tue 08:11:14 AM 39.4333 -76.6167 293° West 138 159 4,100 793 Climbing Potomac TRACON
Tue 08:12:15 AM 39.4333 -76.6667 270° West 136 157 4,800 574 Climbing Potomac TRACON
Tue 08:13:09 AM 39.4333 -76.7000 270° West 137 158 5,200 474 Climbing Potomac TRACON
Tue 08:14:09 AM 39.4500 -76.7500 293° West 132 152 5,700 495 Climbing Potomac TRACON
Tue 08:14:58 AM 39.4500 -76.7833 270° West 132 152 6,100 165 Climbing Potomac TRACON
Tue 08:15:58 AM 39.4667 -76.8333 293° West 139 160 6,000 -50 Descending Potomac TRACON
Tue 08:16:58 AM 39.4833 -76.8833 293° West 148 170 6,000  Level Potomac TRACON
Tue 08:17:58 AM 39.4833 -76.9500 270° West 157 181 6,000  Level Potomac TRACON
Tue 08:19:04 AM 39.5000 -77.0000 293° West 161 185 6,000  Level Potomac TRACON
Tue 08:20:04 AM 39.5000 -77.0667 270° West 160 184 6,000  Level Potomac TRACON
Tue 08:21:04 AM 39.5167 -77.1167 293° West 159 183 6,000  Level Potomac TRACON
Tue 08:21:58 AM 39.5333 -77.1667 293° West 158 182 6,000 41 Level Potomac TRACON
Tue 08:23:32 AM 39.5458 -77.2547 280° West 161 185 6,100  Climbing Washington Center
Tue 08:24:33 AM 39.5661 -77.3064 297° West 161 185 6,000 -49 Descending Washington Center
Tue 08:25:34 AM 39.5819 -77.3578 292° West 161 185 6,000  Level Washington Center
Tue 08:26:33 AM 39.5958 -77.4119 288° West 161 185 6,000  Level Washington Center
Tue 08:27:34 AM 39.6053 -77.4661 283° West 156 180 6,000  Level Washington Center
Tue 08:28:34 AM 39.6192 -77.5178 289° West 156 180 6,000 -50 Level Washington Center
Tue 08:29:33 AM 39.6308 -77.5692 286° West 156 180 5,900 -50 Descending Washington Center
Tue 08:30:33 AM 39.6425 -77.6206 286° West 156 180 5,900  Level Washington Center
Tue 08:31:34 AM 39.6561 -77.6750 288° West 156 180 5,900  Level Washington Center
Tue 08:32:32 AM 39.6656 -77.7292 283° West 156 180 5,900 30 Level Washington Center
Tue 08:34:00 AM 39.6768 -77.8052 281° West  Level FlightAware Approximate
Tue 08:34:53 AM 39.6956 -77.8467 281° West 154 177 6,000  Level Cleveland Center
Tue 08:35:55 AM 39.6989 -77.9019 274° West 153 176 6,000  Level Cleveland Center
Tue 08:36:57 AM 39.6922 -77.9686 263° West 154 177 6,000  Level Cleveland Center
Tue 08:37:59 AM 39.6894 -78.0239 266° West 154 177 6,000  Level Cleveland Center
Tue 08:39:01 AM 39.6867 -78.0778 266° West 152 175 6,000  Level Cleveland Center
Tue 08:40:03 AM 39.6944 -78.1303 281° West 151 174 6,000 97 Level Cleveland Center
Tue 08:41:05 AM 39.7056 -78.1817 286° West 149 171 6,200 339 Climbing Cleveland Center
Tue 08:42:07 AM 39.7144 -78.2333 283° West 147 169 6,700 387 Climbing Cleveland Center
Tue 08:43:09 AM 39.7244 -78.2878 283° West 134 154 7,000 145 Climbing Cleveland Center
Tue 08:44:11 AM 39.7342 -78.3375 284° West 140 161 7,000  Level Cleveland Center
Tue 08:44:42 AM 39.7414 -78.3619 291° West 147 169 7,000  Level Cleveland Center
Tue 08:45:13 AM 39.7458 -78.3875 283° West 144 166 7,000  Level Cleveland Center
Tue 08:45:42 AM 39.7517 -78.4175 284° West 150 173 7,000  Level Cleveland Center
Tue 08:46:15 AM 39.7575 -78.4403 288° West 152 175 7,000  Level Cleveland Center
Tue 08:46:43 AM 39.7625 -78.4678 283° West 151 174 7,000  Level Cleveland Center
Tue 08:47:17 AM 39.7678 -78.4919 286° West 148 170 7,000  Level Cleveland Center
Tue 08:47:44 AM 39.7731 -78.5208 283° West 150 173 7,000  Level Cleveland Center
Tue 08:48:19 AM 39.7797 -78.5550 284° West 154 177 7,000  Level Cleveland Center
Tue 08:48:44 AM 39.7833 -78.5739 284° West 151 174 7,000  Level Cleveland Center
Tue 08:49:21 AM 39.7908 -78.6067 287° West 152 175 7,000  Level Cleveland Center
Tue 08:49:45 AM 39.7942 -78.6242 284° West 148 170 7,000  Level Cleveland Center
Tue 08:50:23 AM 39.8008 -78.6575 285° West 150 173 7,000  Level Cleveland Center
Tue 08:50:46 AM 39.8044 -78.6800 282° West 148 170 7,000  Level Cleveland Center
Tue 08:51:25 AM 39.8108 -78.7106 285° West 155 178 7,000  Level Cleveland Center
Tue 08:51:46 AM 39.8150 -78.7303 285° West 150 173 7,000  Level Cleveland Center
Tue 08:52:27 AM 39.8219 -78.7608 286° West 150 173 7,000  Level Cleveland Center
Tue 08:52:47 AM 39.8256 -78.7833 282° West 149 171 7,000  Level Cleveland Center
Tue 08:53:30 AM 39.8319 -78.8142 285° West 155 178 7,000  Level Cleveland Center
Tue 08:53:47 AM 39.8361 -78.8336 286° West 148 170 7,000  Level Cleveland Center
Tue 08:54:32 AM 39.8447 -78.8753 285° West 150 173 7,000  Level Cleveland Center
Tue 08:54:48 AM 39.8461 -78.8894 277° West 149 171 7,000  Level Cleveland Center
Tue 08:55:34 AM 39.8556 -78.9281 288° West 162 186 7,000  Level Cleveland Center
Tue 08:55:49 AM 39.8567 -78.9425 276° West 150 173 7,000  Level Cleveland Center
Tue 08:56:36 AM 39.8661 -78.9789 289° West 159 183 7,000 -200 Level Cleveland Center
Tue 08:56:49 AM 39.8669 -78.9958 274° West 152 175 6,800 -387 Descending Cleveland Center
Tue 08:57:38 AM 39.8769 -79.0356 288° West 171 197 6,600 -393 Descending Cleveland Center
Tue 08:57:50 AM 39.8792 -79.0492 282° West 158 182 6,400 -581 Descending Cleveland Center
Tue 08:58:40 AM 39.8864 -79.0878 284° West 163 188 6,000 -448 Descending Cleveland Center
Tue 08:58:57 AM 39.8889 -79.1103 278° West 149 171 5,900  Descending Cleveland Center
Tue 08:59:42 AM 39.8997 -79.1467 291° West 150 173 6,000 100 Climbing Cleveland Center
Tue 08:59:57 AM 39.8975 -79.1578 255° West 136 157 6,000  Level Cleveland Center
Tue 09:00:44 AM 39.9075 -79.1936 290° West 139 160 6,000  Level Cleveland Center
Tue 09:00:52 AM 39.9044 -79.1997 237° Southwest 134 154 6,000  Level Cleveland Center
Tue 09:01:46 AM 39.9164 -79.2422 290° West 138 159 6,000  Level Cleveland Center
Tue 09:01:52 AM 39.9150 -79.2475 251° West 137 158 6,000  Level Cleveland Center
Tue 09:02:48 AM 39.9250 -79.2917 286° West 138 159 6,000  Level Cleveland Center
Tue 09:02:53 AM 39.9236 -79.2950 241° Southwest 139 160 6,000  Level Cleveland Center
Tue 09:03:50 AM 39.9344 -79.3400 287° West 138 159 6,000  Level Cleveland Center
Tue 09:03:54 AM 39.9336 -79.3483 263° West 137 158 6,000  Level Cleveland Center
Tue 09:04:52 AM 39.9442 -79.3864 290° West 136 157 6,000  Level Cleveland Center
Tue 09:05:54 AM 39.9547 -79.4431 284° West 133 153 6,000  Level Cleveland Center
Tue 09:06:56 AM 39.9631 -79.4906 283° West 134 154 6,000  Level Cleveland Center
Tue 09:07:58 AM 39.9736 -79.5375 286° West 135 155 6,000  Level Cleveland Center
Tue 09:09:00 AM 39.9825 -79.5856 284° West 135 155 6,000  Level Cleveland Center
Tue 09:10:03 AM 39.9908 -79.6325 283° West 134 154 6,000  Level Cleveland Center
Tue 09:11:05 AM 39.9994 -79.6800 283° West 134 154 6,000  Level Cleveland Center
Tue 09:12:07 AM 40.0111 -79.7419 284° West 144 166 6,000  Level Cleveland Center
Tue 09:13:09 AM 40.0217 -79.7939 285° West 146 168 6,000  Level Cleveland Center
Tue 09:14:11 AM 40.0336 -79.8442 287° West 146 168 6,000  Level Cleveland Center
Tue 09:15:13 AM 40.0439 -79.8969 284° West 149 171 6,000  Level Cleveland Center
Tue 09:16:15 AM 40.0533 -79.9506 283° West 151 174 6,000  Level Cleveland Center
Tue 09:17:17 AM 40.0639 -80.0028 285° West 149 171 6,000  Level Cleveland Center
Tue 09:18:19 AM 40.0728 -80.0558 282° West 149 171 6,000  Level Cleveland Center
Tue 09:19:21 AM 40.0850 -80.1186 284° West 149 171 6,000  Level Cleveland Center
Tue 09:20:23 AM 40.0956 -80.1719 285° West 150 173 6,000 48 Level Cleveland Center
Tue 09:21:25 AM 40.1047 -80.2250 283° West 150 173 6,100  Climbing Cleveland Center
Tue 09:22:27 AM 40.1128 -80.2781 281° West 148 170 6,000 -48 Descending Cleveland Center
Tue 09:23:29 AM 40.1153 -80.3322 273° West 149 171 6,000  Level Cleveland Center
Tue 09:24:31 AM 40.1158 -80.3861 271° West 149 171 6,000  Level Cleveland Center
Tue 09:25:33 AM 40.1164 -80.4522 271° West 151 174 6,000 -339 Level Cleveland Center
Tue 09:26:35 AM 40.1183 -80.5069 273° West 152 175 5,300 -629 Descending Cleveland Center
Tue 09:27:37 AM 40.1206 -80.5583 273° West 144 166 4,700 -629 Descending Cleveland Center
Tue 09:28:39 AM 40.1219 -80.6083 272° West 141 162 4,000 -339 Descending Cleveland Center
Tue 09:29:41 AM 40.1233 -80.6606 272° West 141 162 4,000  Level Cleveland Center
Tue 09:30:43 AM 40.1244 -80.7139 272° West 144 166 4,000 -194 Level Cleveland Center
Tue 09:31:45 AM 40.1264 -80.7661 273° West 145 167 3,600 -432 Descending Cleveland Center
Tue 09:32:48 AM 40.1372 -80.8214 284° West 150 173 3,100 -384 Descending Cleveland Center
Tue 09:33:50 AM 40.1597 -80.8628 305° West 146 168 2,800 -290 Descending Cleveland Center

Login

Don't have an account? Register now (free) for customized features, flight alerts, and more!